TimeCDT,TemperatureF,Dew PointF,Humidity,Sea Level PressureIn,VisibilityMPH,Wind Direction,Wind SpeedMPH,Gust SpeedMPH,PrecipitationIn,Events,Conditions,WindDirDegrees,DateUTC
12:53 AM,53.1,46.0,77,30.06,10.0,SE,5.8,-,N/A,,Clear,130,2013-03-30 05:53:00
1:53 AM,53.1,46.0,77,30.06,10.0,East,4.6,-,N/A,,Mostly Cloudy,90,2013-03-30 06:53:00
2:53 AM,53.1,46.9,80,30.06,10.0,Calm,Calm,-,N/A,,Overcast,0,2013-03-30 07:53:00
3:53 AM,51.1,46.0,83,30.01,10.0,East,5.8,-,N/A,,Clear,100,2013-03-30 08:53:00
4:53 AM,52.0,46.0,80,29.99,10.0,East,5.8,-,N/A,,Mostly Cloudy,100,2013-03-30 09:53:00
5:37 AM,54.0,46.9,77,29.99,10.0,Calm,Calm,-,0.00,Rain,Light Rain,0,2013-03-30 10:37:00
5:44 AM,55.0,46.9,74,29.99,10.0,South,5.8,-,0.00,Rain,Light Rain,170,2013-03-30 10:44:00
5:53 AM,55.0,48.0,77,29.96,10.0,South,10.4,-,0.00,Rain,Light Rain,180,2013-03-30 10:53:00
6:18 AM,54.0,48.9,83,29.91,7.0,South,21.9,28.8,0.01,Rain,Light Rain,170,2013-03-30 11:18:00
6:53 AM,55.0,51.1,86,29.92,9.0,NNW,11.5,-,0.02,,Mostly Cloudy,330,2013-03-30 11:53:00
7:06 AM,55.9,52.0,87,29.94,9.0,Calm,Calm,-,N/A,,Mostly Cloudy,0,2013-03-30 12:06:00
7:15 AM,55.9,51.1,84,29.94,10.0,Calm,Calm,-,N/A,,Scattered Clouds,0,2013-03-30 12:15:00
7:53 AM,54.0,51.1,90,29.95,8.0,SSW,3.5,-,N/A,,Partly Cloudy,210,2013-03-30 12:53:00
8:53 AM,55.9,52.0,87,29.96,9.0,Calm,Calm,-,N/A,,Clear,0,2013-03-30 13:53:00
9:53 AM,57.0,53.1,87,29.94,10.0,SE,3.5,-,N/A,,Partly Cloudy,140,2013-03-30 14:53:00
10:34 AM,60.1,53.1,78,29.94,10.0,SSW,5.8,-,N/A,,Mostly Cloudy,210,2013-03-30 15:34:00
10:53 AM,61.0,54.0,78,29.94,10.0,SW,8.1,-,N/A,,Mostly Cloudy,220,2013-03-30 15:53:00
11:02 AM,62.1,54.0,75,29.94,10.0,West,8.1,-,N/A,,Mostly Cloudy,270,2013-03-30 16:02:00
11:53 AM,62.1,53.1,72,29.96,10.0,NW,9.2,-,N/A,,Overcast,310,2013-03-30 16:53:00
12:19 PM,64.9,53.1,65,29.95,10.0,Variable,5.8,-,N/A,,Overcast,0,2013-03-30 17:19:00
12:53 PM,64.0,53.1,67,29.94,10.0,West,4.6,-,N/A,,Overcast,280,2013-03-30 17:53:00
1:53 PM,64.9,52.0,63,29.92,10.0,Variable,5.8,-,N/A,,Overcast,0,2013-03-30 18:53:00
2:53 PM,68.0,53.1,59,29.88,10.0,WNW,10.4,-,N/A,,Mostly Cloudy,300,2013-03-30 19:53:00
3:53 PM,69.1,51.1,53,29.87,10.0,NW,6.9,-,N/A,,Mostly Cloudy,320,2013-03-30 20:53:00
4:53 PM,70.0,50.0,49,29.86,10.0,North,9.2,-,N/A,,Scattered Clouds,350,2013-03-30 21:53:00
5:53 PM,72.0,48.0,43,29.85,10.0,NW,6.9,-,N/A,,Partly Cloudy,320,2013-03-30 22:53:00
6:53 PM,69.1,48.0,47,29.86,10.0,NNW,8.1,-,N/A,,Clear,340,2013-03-30 23:53:00
7:53 PM,64.9,48.0,54,29.88,10.0,North,6.9,-,N/A,,Mostly Cloudy,350,2013-03-31 00:53:00
8:53 PM,63.0,48.9,60,29.89,10.0,North,9.2,-,N/A,,Scattered Clouds,360,2013-03-31 01:53:00
9:53 PM,60.1,46.0,60,29.92,10.0,North,9.2,-,N/A,,Scattered Clouds,360,2013-03-31 02:53:00
10:53 PM,57.0,42.1,57,29.94,10.0,North,8.1,-,N/A,,Scattered Clouds,360,2013-03-31 03:53:00
11:53 PM,55.0,41.0,59,29.94,10.0,NNW,4.6,-,N/A,,Mostly Cloudy,330,2013-03-31 04:53:00